Time;durP1;ratioP1;P1;durP2;ratioP2;P2;SDS_P1;SDS_P2;PMS_P1;PMS_P2;Temp;Humidity;BMP_temperature;BMP_pressure;BME280_temperature;BME280_humidity;BME280_pressure;Samples;Min_cycle;Max_cycle;Signal;HPM_P1;HPM_P2
2022/12/01 00:00:53;;;;;;;96.28;43.45;;;;;;;;;;5133756;27;20039;-72
2022/12/01 00:03:19;;;;;;;105.10;42.85;;;;;;;;;;5115500;27;20055;-72
2022/12/01 00:05:45;;;;;;;106.95;43.28;;;;;;;;;;5129306;27;20043;-72
2022/12/01 00:08:11;;;;;;;108.05;43.97;;;;;;;;;;5133043;27;20043;-72
2022/12/01 00:10:37;;;;;;;102.47;42.13;;;;;;;;;;5130308;27;20047;-72
2022/12/01 00:13:04;;;;;;;105.28;43.25;;;;;;;;;;5132011;27;20054;-72
2022/12/01 00:15:36;;;;;;;117.05;46.30;;;;;;;;;;5127072;27;20050;-72
2022/12/01 00:18:06;;;;;;;112.25;44.78;;;;;;;;;;5132464;27;20051;-72
2022/12/01 00:20:33;;;;;;;110.15;45.78;;;;;;;;;;5133710;27;20486;-72
2022/12/01 00:22:59;;;;;;;115.63;45.33;;;;;;;;;;5109801;27;20046;-72
2022/12/01 00:25:25;;;;;;;126.82;48.58;;;;;;;;;;5131157;27;20046;-72
2022/12/01 00:27:52;;;;;;;122.57;47.72;;;;;;;;;;5133333;27;20089;-72
2022/12/01 00:30:19;;;;;;;111.72;46.22;;;;;;;;;;5133199;27;20038;-72
2022/12/01 00:32:45;;;;;;;112.88;43.53;;;;;;;;;;5132752;27;20043;-72
2022/12/01 00:35:11;;;;;;;123.75;49.33;;;;;;;;;;5112833;27;20055;-72
2022/12/01 00:37:38;;;;;;;126.40;45.78;;;;;;;;;;5130655;27;20044;-72
2022/12/01 00:40:06;;;;;;;117.78;47.72;;;;;;;;;;5131727;27;20047;-72
2022/12/01 00:42:32;;;;;;;121.97;47.78;;;;;;;;;;5128734;27;20043;-72
2022/12/01 00:44:58;;;;;;;115.97;44.05;;;;;;;;;;5127496;27;20075;-72
2022/12/01 00:47:24;;;;;;;129.77;49.67;;;;;;;;;;5124758;27;20049;-72
2022/12/01 00:49:51;;;;;;;130.70;47.90;;;;;;;;;;5125143;27;20081;-72
2022/12/01 00:52:17;;;;;;;132.15;48.50;;;;;;;;;;5130937;27;20070;-72
2022/12/01 00:54:43;;;;;;;129.32;47.75;;;;;;;;;;5128699;27;20043;-72
2022/12/01 00:57:09;;;;;;;125.90;45.50;;;;;;;;;;5132030;27;20043;-72
2022/12/01 00:59:35;;;;;;;128.27;47.47;;;;;;;;;;5131731;28;20039;-72
2022/12/01 01:02:02;;;;;;;129.57;50.53;;;;;;;;;;5131354;28;20047;-72
2022/12/01 01:04:32;;;;;;;129.73;47.80;;;;;;;;;;5123045;28;20043;-72
2022/12/01 01:06:58;;;;;;;145.52;51.78;;;;;;;;;;5133756;28;20052;-72
2022/12/01 01:09:24;;;;;;;137.32;50.20;;;;;;;;;;5116712;28;20040;-72
2022/12/01 01:11:51;;;;;;;132.52;51.03;;;;;;;;;;5130161;28;21861;-72
2022/12/01 01:14:17;;;;;;;137.93;49.08;;;;;;;;;;5127760;28;20409;-72
2022/12/01 01:16:43;;;;;;;139.13;50.90;;;;;;;;;;5131747;28;20036;-72
2022/12/01 01:19:09;;;;;;;133.45;47.58;;;;;;;;;;5119314;28;20031;-72
2022/12/01 01:21:35;;;;;;;149.43;54.35;;;;;;;;;;5132667;28;20070;-72
2022/12/01 01:24:01;;;;;;;135.05;49.72;;;;;;;;;;5123009;28;20040;-72
2022/12/01 01:26:29;;;;;;;132.30;50.55;;;;;;;;;;5130209;28;20035;-72
2022/12/01 01:28:56;;;;;;;142.75;49.00;;;;;;;;;;5133118;28;20043;-72
2022/12/01 01:31:23;;;;;;;138.77;49.53;;;;;;;;;;5132854;28;20039;-72
2022/12/01 01:33:49;;;;;;;136.55;49.85;;;;;;;;;;5132978;28;20051;-72
2022/12/01 01:36:16;;;;;;;147.32;50.88;;;;;;;;;;5132477;27;20092;-73
2022/12/01 01:38:42;;;;;;;141.10;49.85;;;;;;;;;;5136989;27;20039;-72
2022/12/01 01:41:09;;;;;;;138.27;49.92;;;;;;;;;;5132856;27;20130;-72
2022/12/01 01:43:38;;;;;;;143.95;51.33;;;;;;;;;;5130870;27;20096;-72
2022/12/01 01:46:07;;;;;;;132.07;49.72;;;;;;;;;;5137103;27;20457;-72
2022/12/01 01:48:34;;;;;;;131.50;50.05;;;;;;;;;;5137290;27;20035;-72
2022/12/01 01:51:00;;;;;;;134.25;50.80;;;;;;;;;;5137227;27;20075;-73
2022/12/01 01:53:26;;;;;;;136.52;51.33;;;;;;;;;;5127819;27;20119;-72
2022/12/01 01:55:53;;;;;;;128.07;50.75;;;;;;;;;;5129554;27;20092;-72
2022/12/01 01:58:19;;;;;;;127.45;48.45;;;;;;;;;;5130971;27;20043;-72
2022/12/01 02:00:45;;;;;;;115.95;45.85;;;;;;;;;;5126017;27;20151;-72
2022/12/01 02:03:14;;;;;;;119.63;49.58;;;;;;;;;;5135404;27;20387;-72
2022/12/01 02:05:43;;;;;;;121.50;50.38;;;;;;;;;;5129558;27;20035;-72
2022/12/01 02:08:11;;;;;;;118.75;48.13;;;;;;;;;;5124515;27;20048;-72
2022/12/01 02:10:56;;;;;;;114.68;49.42;;;;;;;;;;5133595;27;20497;-72
2022/12/01 02:13:38;;;;;;;108.50;48.55;;;;;;;;;;5126329;27;20147;-72
2022/12/01 02:16:22;;;;;;;113.18;48.97;;;;;;;;;;5120437;27;20050;-72
2022/12/01 02:18:59;;;;;;;108.53;48.88;;;;;;;;;;5135618;27;20031;-72
2022/12/01 02:21:43;;;;;;;103.25;46.40;;;;;;;;;;5135181;27;20497;-72
2022/12/01 02:24:34;;;;;;;112.45;50.47;;;;;;;;;;5134563;27;20371;-72
2022/12/01 02:27:05;;;;;;;118.57;49.25;;;;;;;;;;5124345;27;20367;-72
2022/12/01 02:29:45;;;;;;;108.03;47.20;;;;;;;;;;5136726;27;20040;-72
2022/12/01 02:32:11;;;;;;;108.57;48.80;;;;;;;;;;5136862;27;20053;-72
2022/12/01 02:34:37;;;;;;;115.18;49.35;;;;;;;;;;5135863;27;20114;-72
2022/12/01 02:37:03;;;;;;;117.20;49.83;;;;;;;;;;5135172;27;20047;-72
2022/12/01 02:39:35;;;;;;;114.15;50.42;;;;;;;;;;5136171;27;20111;-72
2022/12/01 02:42:04;;;;;;;109.75;50.03;;;;;;;;;;5134713;27;20075;-72
2022/12/01 02:44:33;;;;;;;108.93;50.20;;;;;;;;;;5133750;27;20035;-72
2022/12/01 02:47:02;;;;;;;102.72;48.00;;;;;;;;;;5136181;27;20434;-72
2022/12/01 02:49:35;;;;;;;106.40;48.15;;;;;;;;;;5135903;27;20043;-72
2022/12/01 02:52:02;;;;;;;106.68;49.97;;;;;;;;;;5116910;27;20075;-72
2022/12/01 02:54:30;;;;;;;104.78;49.55;;;;;;;;;;5135935;27;20043;-73
2022/12/01 02:56:56;;;;;;;104.57;48.53;;;;;;;;;;5134468;27;20055;-72
2022/12/01 02:59:22;;;;;;;101.40;48.58;;;;;;;;;;5134944;27;20056;-72
2022/12/01 03:01:56;;;;;;;105.72;49.65;;;;;;;;;;5131408;27;20126;-72
2022/12/01 03:04:31;;;;;;;107.53;50.05;;;;;;;;;;5131861;27;20055;-72
2022/12/01 03:07:11;;;;;;;100.50;49.85;;;;;;;;;;5133565;27;20458;-72
2022/12/01 03:09:46;;;;;;;108.50;49.67;;;;;;;;;;5134733;27;20090;-72
2022/12/01 03:12:20;;;;;;;109.13;50.13;;;;;;;;;;5133762;27;20039;-72
2022/12/01 03:14:58;;;;;;;101.90;49.00;;;;;;;;;;5126836;27;20155;-72
2022/12/01 03:17:44;;;;;;;107.10;51.05;;;;;;;;;;5134375;27;20119;-72
2022/12/01 03:20:14;;;;;;;99.55;48.53;;;;;;;;;;5125078;27;20051;-72
2022/12/01 03:22:49;;;;;;;110.53;50.30;;;;;;;;;;5119929;27;20450;-72
2022/12/01 03:25:16;;;;;;;103.10;49.00;;;;;;;;;;5133002;27;20065;-72
2022/12/01 03:27:43;;;;;;;108.93;50.55;;;;;;;;;;5133545;27;20478;-72
2022/12/01 03:30:10;;;;;;;106.88;51.15;;;;;;;;;;5132320;27;20043;-72
2022/12/01 03:32:50;;;;;;;116.18;51.72;;;;;;;;;;5134137;27;20170;-72
2022/12/01 03:35:22;;;;;;;108.68;50.53;;;;;;;;;;5131056;27;20505;-72
2022/12/01 03:37:54;;;;;;;109.97;50.85;;;;;;;;;;5125388;27;20046;-72
2022/12/01 03:40:23;;;;;;;112.63;52.22;;;;;;;;;;5132784;27;20047;-72
2022/12/01 03:42:54;;;;;;;114.30;52.15;;;;;;;;;;5134430;27;20046;-72
2022/12/01 03:45:24;;;;;;;110.85;51.53;;;;;;;;;;5114396;27;20542;-72
2022/12/01 03:47:50;;;;;;;112.75;52.40;;;;;;;;;;5133764;27;20378;-72
2022/12/01 03:50:17;;;;;;;107.03;51.03;;;;;;;;;;5133641;27;20043;-72
2022/12/01 03:52:55;;;;;;;116.60;52.67;;;;;;;;;;5134167;27;20043;-72
2022/12/01 03:55:28;;;;;;;115.15;53.95;;;;;;;;;;5133520;27;20043;-72
2022/12/01 03:58:07;;;;;;;111.15;52.50;;;;;;;;;;5132446;27;20047;-73
2022/12/01 04:00:33;;;;;;;114.60;51.85;;;;;;;;;;5133048;27;20127;-72
2022/12/01 04:03:02;;;;;;;114.97;50.63;;;;;;;;;;5125429;27;20083;-72
2022/12/01 04:05:28;;;;;;;107.82;51.38;;;;;;;;;;5123432;27;20047;-72
2022/12/01 04:07:54;;;;;;;105.97;49.63;;;;;;;;;;5133002;27;20062;-72
2022/12/01 04:10:20;;;;;;;108.72;49.55;;;;;;;;;;5131074;27;20047;-72
2022/12/01 04:12:46;;;;;;;104.75;51.17;;;;;;;;;;5132753;27;20047;-72
2022/12/01 04:15:13;;;;;;;104.70;50.78;;;;;;;;;;5132878;27;20104;-72
2022/12/01 04:17:42;;;;;;;107.00;50.35;;;;;;;;;;5128976;27;20080;-72
2022/12/01 04:20:09;;;;;;;114.38;53.10;;;;;;;;;;5127826;27;20047;-72
2022/12/01 04:22:35;;;;;;;110.75;52.65;;;;;;;;;;5128368;27;20108;-72
2022/12/01 04:25:01;;;;;;;113.97;51.97;;;;;;;;;;5133303;27;20409;-72
2022/12/01 04:27:27;;;;;;;105.63;51.70;;;;;;;;;;5112779;27;20070;-72
2022/12/01 04:29:53;;;;;;;111.03;52.65;;;;;;;;;;5133606;27;20513;-72
2022/12/01 04:32:19;;;;;;;108.32;51.47;;;;;;;;;;5132399;27;20074;-72
2022/12/01 04:34:45;;;;;;;109.72;52.03;;;;;;;;;;5133851;27;20038;-72
2022/12/01 04:37:11;;;;;;;111.15;53.78;;;;;;;;;;5133117;27;20043;-72
2022/12/01 04:39:38;;;;;;;107.45;50.33;;;;;;;;;;5133270;27;20039;-72
2022/12/01 04:42:04;;;;;;;113.50;52.30;;;;;;;;;;5133103;27;20043;-72
2022/12/01 04:44:30;;;;;;;119.38;54.00;;;;;;;;;;5125188;27;20054;-72
2022/12/01 04:46:56;;;;;;;112.60;52.42;;;;;;;;;;5132642;27;20039;-72
2022/12/01 04:49:22;;;;;;;110.15;52.00;;;;;;;;;;5132694;27;20046;-72
2022/12/01 04:51:49;;;;;;;111.88;52.38;;;;;;;;;;5115027;28;20039;-72
2022/12/01 04:54:15;;;;;;;119.75;54.42;;;;;;;;;;5132162;27;20481;-72
2022/12/01 04:56:41;;;;;;;115.97;53.13;;;;;;;;;;5130112;27;20083;-72
2022/12/01 04:59:07;;;;;;;116.20;52.63;;;;;;;;;;5132436;28;20039;-72
2022/12/01 05:01:33;;;;;;;123.93;54.95;;;;;;;;;;5124526;28;20062;-73
2022/12/01 05:03:59;;;;;;;114.03;53.17;;;;;;;;;;5132966;28;20055;-72
2022/12/01 05:06:26;;;;;;;118.78;54.03;;;;;;;;;;5130084;28;20035;-72
2022/12/01 05:08:54;;;;;;;119.85;53.97;;;;;;;;;;5131756;28;20086;-72
2022/12/01 05:11:20;;;;;;;112.45;52.80;;;;;;;;;;5132843;27;20493;-72
2022/12/01 05:13:47;;;;;;;110.25;51.53;;;;;;;;;;5136474;27;20074;-72
2022/12/01 05:16:15;;;;;;;111.32;52.50;;;;;;;;;;5136260;27;20046;-72
2022/12/01 05:18:41;;;;;;;116.32;54.92;;;;;;;;;;5132138;27;20078;-72
2022/12/01 05:21:08;;;;;;;118.15;54.58;;;;;;;;;;5137966;27;20489;-72
2022/12/01 05:23:35;;;;;;;111.50;52.00;;;;;;;;;;5135229;27;20508;-72
2022/12/01 05:26:02;;;;;;;118.28;52.97;;;;;;;;;;5133376;27;20163;-72
2022/12/01 05:28:28;;;;;;;111.25;51.47;;;;;;;;;;5135463;27;20047;-72
2022/12/01 05:30:55;;;;;;;120.07;52.13;;;;;;;;;;5134828;27;20043;-72
2022/12/01 05:33:24;;;;;;;115.68;53.03;;;;;;;;;;5136817;27;20477;-72
2022/12/01 05:35:51;;;;;;;119.80;53.88;;;;;;;;;;5116960;27;20036;-72
2022/12/01 05:38:17;;;;;;;124.97;53.28;;;;;;;;;;5116972;28;20050;-72
2022/12/01 05:40:48;;;;;;;119.63;53.15;;;;;;;;;;5116872;28;20456;-72
2022/12/01 05:43:14;;;;;;;113.30;51.78;;;;;;;;;;5119643;27;20643;-72
2022/12/01 05:45:40;;;;;;;127.18;54.63;;;;;;;;;;5136933;27;20039;-72
2022/12/01 05:48:06;;;;;;;116.40;52.90;;;;;;;;;;5136874;27;20054;-72
2022/12/01 05:50:32;;;;;;;118.35;53.00;;;;;;;;;;5136214;27;20467;-72
2022/12/01 05:52:58;;;;;;;117.82;52.33;;;;;;;;;;5137240;27;20047;-72
2022/12/01 05:55:24;;;;;;;119.65;52.60;;;;;;;;;;5136231;27;20051;-72
2022/12/01 05:57:50;;;;;;;116.43;52.28;;;;;;;;;;5131299;27;20050;-72
2022/12/01 06:00:17;;;;;;;126.88;53.85;;;;;;;;;;5134129;27;20054;-72
2022/12/01 06:02:43;;;;;;;122.38;53.28;;;;;;;;;;5136865;27;20046;-73
2022/12/01 06:05:09;;;;;;;113.15;52.75;;;;;;;;;;5130974;27;20184;-72
2022/12/01 06:07:35;;;;;;;121.15;53.25;;;;;;;;;;5134630;27;20043;-72
2022/12/01 06:10:02;;;;;;;122.95;53.60;;;;;;;;;;5131699;27;20043;-72
2022/12/01 06:12:28;;;;;;;131.02;54.58;;;;;;;;;;5135495;27;20046;-72
2022/12/01 06:14:54;;;;;;;124.07;52.95;;;;;;;;;;5132775;27;20035;-72
2022/12/01 06:17:20;;;;;;;134.18;53.90;;;;;;;;;;5136381;27;20039;-73
2022/12/01 06:19:46;;;;;;;132.68;53.97;;;;;;;;;;5135158;27;20048;-72
2022/12/01 06:22:12;;;;;;;131.20;54.60;;;;;;;;;;5134770;27;20099;-72
2022/12/01 06:24:38;;;;;;;131.90;54.92;;;;;;;;;;5131464;27;20044;-72
2022/12/01 06:27:05;;;;;;;134.60;53.63;;;;;;;;;;5134746;27;20043;-73
2022/12/01 06:29:31;;;;;;;128.35;55.25;;;;;;;;;;5134509;27;20039;-72
2022/12/01 06:31:57;;;;;;;122.03;51.33;;;;;;;;;;5135364;27;20042;-72
2022/12/01 06:34:23;;;;;;;123.43;54.45;;;;;;;;;;5134785;27;20497;-72
2022/12/01 06:36:49;;;;;;;121.63;54.50;;;;;;;;;;5132640;27;20039;-72
2022/12/01 06:39:15;;;;;;;123.97;52.28;;;;;;;;;;5134604;27;20043;-72
2022/12/01 06:41:42;;;;;;;122.90;54.50;;;;;;;;;;5134184;27;20401;-72
2022/12/01 06:44:08;;;;;;;118.65;53.53;;;;;;;;;;5134770;27;20050;-72
2022/12/01 06:46:34;;;;;;;115.78;53.00;;;;;;;;;;5135401;27;20039;-72
2022/12/01 06:49:00;;;;;;;127.20;52.60;;;;;;;;;;5132954;27;20039;-72
2022/12/01 06:51:26;;;;;;;117.97;51.90;;;;;;;;;;5134679;27;20485;-72
2022/12/01 06:53:55;;;;;;;123.38;52.45;;;;;;;;;;5134529;27;20050;-72
2022/12/01 06:56:21;;;;;;;120.30;51.78;;;;;;;;;;5135171;27;20047;-72
2022/12/01 06:58:51;;;;;;;114.93;51.35;;;;;;;;;;5130491;27;20054;-73
2022/12/01 07:01:17;;;;;;;117.50;52.47;;;;;;;;;;5125666;27;20574;-72
2022/12/01 07:03:46;;;;;;;123.68;52.58;;;;;;;;;;5130585;27;20062;-72
2022/12/01 07:06:12;;;;;;;118.05;51.47;;;;;;;;;;5125059;27;20035;-72
2022/12/01 07:08:38;;;;;;;125.68;52.88;;;;;;;;;;5135297;27;20061;-73
2022/12/01 07:11:06;;;;;;;120.68;50.50;;;;;;;;;;5134778;27;20051;-71
2022/12/01 07:13:32;;;;;;;129.07;52.63;;;;;;;;;;5132834;27;20042;-72
2022/12/01 07:15:58;;;;;;;113.22;50.78;;;;;;;;;;5133516;27;20047;-72
2022/12/01 07:18:24;;;;;;;116.43;50.80;;;;;;;;;;5132240;27;20036;-72
2022/12/01 07:20:50;;;;;;;114.90;51.13;;;;;;;;;;5133431;27;20122;-72
2022/12/01 07:23:16;;;;;;;117.32;50.97;;;;;;;;;;5132348;27;20084;-72
2022/12/01 07:25:42;;;;;;;123.05;51.78;;;;;;;;;;5121664;27;20043;-72
2022/12/01 07:28:08;;;;;;;117.40;51.58;;;;;;;;;;5124271;27;20047;-72
2022/12/01 07:30:34;;;;;;;115.28;51.85;;;;;;;;;;5129602;27;20482;-72
2022/12/01 07:33:00;;;;;;;121.97;52.13;;;;;;;;;;5120673;27;20047;-72
2022/12/01 07:35:26;;;;;;;122.93;50.47;;;;;;;;;;5113997;27;20508;-72
2022/12/01 07:37:56;;;;;;;116.25;51.92;;;;;;;;;;5129292;27;20043;-72
2022/12/01 07:40:22;;;;;;;116.60;52.38;;;;;;;;;;5117354;27;20040;-72
2022/12/01 07:42:48;;;;;;;128.70;52.88;;;;;;;;;;5124027;27;20043;-72
2022/12/01 07:45:14;;;;;;;118.03;52.75;;;;;;;;;;5117545;27;20047;-72
2022/12/01 07:47:40;;;;;;;115.05;51.38;;;;;;;;;;5124690;27;20044;-72
2022/12/01 07:50:07;;;;;;;123.75;51.85;;;;;;;;;;5113786;28;20043;-72
2022/12/01 07:52:33;;;;;;;118.93;52.40;;;;;;;;;;5113510;28;20044;-72
2022/12/01 07:54:59;;;;;;;121.07;52.83;;;;;;;;;;5113455;28;20078;-72
2022/12/01 07:57:25;;;;;;;122.10;50.90;;;;;;;;;;5113649;27;20071;-75
2022/12/01 07:59:51;;;;;;;121.10;50.67;;;;;;;;;;5126299;27;20035;-72
2022/12/01 08:02:17;;;;;;;117.22;52.55;;;;;;;;;;5123096;27;20562;-72
2022/12/01 08:04:44;;;;;;;117.82;50.72;;;;;;;;;;5129131;27;20065;-72
2022/12/01 08:07:10;;;;;;;125.45;53.40;;;;;;;;;;5121969;27;20478;-73
2022/12/01 08:09:36;;;;;;;122.72;53.13;;;;;;;;;;5119414;27;20035;-72
2022/12/01 08:12:02;;;;;;;115.35;50.22;;;;;;;;;;5129298;27;20031;-72
2022/12/01 08:14:28;;;;;;;122.80;51.63;;;;;;;;;;5130936;27;20474;-72
2022/12/01 08:16:54;;;;;;;120.43;49.85;;;;;;;;;;5132322;27;20114;-72
2022/12/01 08:19:20;;;;;;;122.68;50.95;;;;;;;;;;5133415;27;20119;-72
2022/12/01 08:21:46;;;;;;;119.22;50.50;;;;;;;;;;5125121;27;20128;-72
2022/12/01 08:24:12;;;;;;;117.22;51.58;;;;;;;;;;5119943;27;20043;-72
2022/12/01 08:26:38;;;;;;;107.47;48.85;;;;;;;;;;5123330;27;20077;-72
2022/12/01 08:29:04;;;;;;;118.22;49.35;;;;;;;;;;5120252;27;20035;-72
2022/12/01 08:31:31;;;;;;;109.75;48.13;;;;;;;;;;5123739;27;20035;-72
2022/12/01 08:33:58;;;;;;;115.28;46.78;;;;;;;;;;5125533;27;20047;-72
2022/12/01 08:36:24;;;;;;;115.03;49.55;;;;;;;;;;5126872;27;20039;-72
2022/12/01 08:38:51;;;;;;;109.70;48.33;;;;;;;;;;5127766;27;20498;-72
2022/12/01 08:41:18;;;;;;;114.45;48.03;;;;;;;;;;5103447;27;20046;-73
2022/12/01 08:43:44;;;;;;;114.75;48.22;;;;;;;;;;5132201;27;20042;-72
2022/12/01 08:46:19;;;;;;;109.78;47.25;;;;;;;;;;5132546;27;20039;-72
2022/12/01 08:48:46;;;;;;;102.90;47.22;;;;;;;;;;5131916;27;20081;-72
2022/12/01 08:51:13;;;;;;;106.47;48.00;;;;;;;;;;5113142;27;20047;-72
2022/12/01 08:53:40;;;;;;;106.28;47.90;;;;;;;;;;5128784;27;20051;-72
2022/12/01 08:56:08;;;;;;;109.32;48.35;;;;;;;;;;5129516;27;20058;-72
2022/12/01 08:58:34;;;;;;;104.20;47.50;;;;;;;;;;5131890;27;20110;-72
2022/12/01 09:01:01;;;;;;;114.10;49.60;;;;;;;;;;5125011;28;20043;-73
2022/12/01 09:03:27;;;;;;;108.80;48.60;;;;;;;;;;5118596;28;20100;-72
2022/12/01 09:05:53;;;;;;;108.88;48.88;;;;;;;;;;5131160;28;20130;-73
2022/12/01 09:08:31;;;;;;;107.53;47.13;;;;;;;;;;5130930;28;20039;-72
2022/12/01 09:10:58;;;;;;;105.78;46.45;;;;;;;;;;5131776;28;20050;-72
2022/12/01 09:13:26;;;;;;;106.90;48.28;;;;;;;;;;5131549;28;20043;-72
2022/12/01 09:15:56;;;;;;;104.90;45.97;;;;;;;;;;5126957;28;20043;-72
2022/12/01 09:18:22;;;;;;;108.38;48.72;;;;;;;;;;5123746;28;20494;-72
2022/12/01 09:20:49;;;;;;;101.75;47.00;;;;;;;;;;5132418;28;20043;-72
2022/12/01 09:23:15;;;;;;;102.13;46.53;;;;;;;;;;5130094;28;20038;-72
2022/12/01 09:25:41;;;;;;;103.93;47.78;;;;;;;;;;5130584;28;20117;-72
2022/12/01 09:28:07;;;;;;;106.35;48.60;;;;;;;;;;5114612;28;20039;-72
2022/12/01 09:30:36;;;;;;;94.60;42.90;;;;;;;;;;5129497;28;20047;-72
2022/12/01 09:33:02;;;;;;;103.22;46.28;;;;;;;;;;5129934;28;20092;-72
2022/12/01 09:35:29;;;;;;;95.03;45.50;;;;;;;;;;5131177;28;20758;-72
2022/12/01 09:37:55;;;;;;;92.18;45.63;;;;;;;;;;5123516;28;20451;-72
2022/12/01 09:40:25;;;;;;;89.93;40.75;;;;;;;;;;5104346;28;20047;-72
2022/12/01 09:42:51;;;;;;;95.10;44.10;;;;;;;;;;5129143;28;20614;-72
2022/12/01 09:45:25;;;;;;;96.85;45.50;;;;;;;;;;5130538;28;20036;-72
2022/12/01 09:47:53;;;;;;;90.22;44.85;;;;;;;;;;5132808;28;20043;-72
2022/12/01 09:50:24;;;;;;;95.00;45.05;;;;;;;;;;5132788;28;20036;-73
2022/12/01 09:52:52;;;;;;;88.43;41.65;;;;;;;;;;5132694;28;20515;-72
2022/12/01 09:55:20;;;;;;;87.43;41.90;;;;;;;;;;5130200;28;20047;-72
2022/12/01 09:57:47;;;;;;;96.70;45.60;;;;;;;;;;5118466;28;20036;-72
2022/12/01 10:00:15;;;;;;;90.45;43.80;;;;;;;;;;5118960;27;20118;-72
2022/12/01 10:02:47;;;;;;;83.93;42.85;;;;;;;;;;5119963;27;20063;-72
2022/12/01 10:05:15;;;;;;;85.40;41.28;;;;;;;;;;5134432;27;20137;-72
2022/12/01 10:08:00;;;;;;;86.68;42.10;;;;;;;;;;5115929;27;20497;-72
2022/12/01 10:10:58;;;;;;;85.70;42.92;;;;;;;;;;5131487;27;20043;-72
2022/12/01 10:13:26;;;;;;;81.00;41.20;;;;;;;;;;5079976;27;20134;-72
2022/12/01 10:15:58;;;;;;;75.25;37.00;;;;;;;;;;5119207;27;20040;-72
2022/12/01 10:18:43;;;;;;;77.15;38.97;;;;;;;;;;5131284;27;20051;-72
2022/12/01 10:21:14;;;;;;;75.55;37.90;;;;;;;;;;5123452;27;20370;-72
2022/12/01 10:23:43;;;;;;;68.43;35.63;;;;;;;;;;5131553;27;20058;-72
2022/12/01 10:26:25;;;;;;;70.10;39.50;;;;;;;;;;5133767;27;20425;-72
2022/12/01 10:29:10;;;;;;;81.10;39.95;;;;;;;;;;5135095;27;20118;-72
2022/12/01 10:31:36;;;;;;;78.22;39.65;;;;;;;;;;5119507;27;20104;-73
2022/12/01 10:34:14;;;;;;;75.80;39.00;;;;;;;;;;5130907;27;20485;-72
2022/12/01 10:36:40;;;;;;;69.32;38.15;;;;;;;;;;5132450;27;20039;-72
2022/12/01 10:39:07;;;;;;;78.53;40.35;;;;;;;;;;5133636;27;20095;-72
2022/12/01 10:41:35;;;;;;;78.35;39.85;;;;;;;;;;5134538;27;20081;-72
2022/12/01 10:44:04;;;;;;;74.82;38.10;;;;;;;;;;5115689;27;20120;-72
2022/12/01 10:46:30;;;;;;;69.38;37.47;;;;;;;;;;5118618;27;20062;-72
2022/12/01 10:48:57;;;;;;;68.70;37.13;;;;;;;;;;5114894;27;20604;-72
2022/12/01 10:51:24;;;;;;;68.75;36.17;;;;;;;;;;5124993;27;20073;-72
2022/12/01 10:53:57;;;;;;;65.18;37.03;;;;;;;;;;5131405;27;20043;-72
2022/12/01 10:56:23;;;;;;;71.45;38.33;;;;;;;;;;5122787;27;20139;-72
2022/12/01 10:58:52;;;;;;;65.38;35.88;;;;;;;;;;5124853;27;20035;-72
2022/12/01 11:01:20;;;;;;;65.55;38.00;;;;;;;;;;5124488;27;20047;-72
2022/12/01 11:03:50;;;;;;;72.10;37.95;;;;;;;;;;5122196;27;20410;-72
2022/12/01 11:06:20;;;;;;;71.32;37.45;;;;;;;;;;5123201;27;20118;-72
2022/12/01 11:08:51;;;;;;;65.88;36.08;;;;;;;;;;5122458;27;20051;-72
2022/12/01 11:11:33;;;;;;;64.32;34.55;;;;;;;;;;5121218;27;20133;-73
2022/12/01 11:14:01;;;;;;;68.22;37.20;;;;;;;;;;5118610;27;20044;-72
2022/12/01 11:16:33;;;;;;;62.70;34.85;;;;;;;;;;5105579;27;20047;-72
2022/12/01 11:19:18;;;;;;;62.78;34.65;;;;;;;;;;5119435;27;20418;-72
2022/12/01 11:21:51;;;;;;;65.35;35.47;;;;;;;;;;5120730;27;20567;-72
2022/12/01 11:24:26;;;;;;;66.15;36.95;;;;;;;;;;5124315;27;20042;-72
2022/12/01 11:26:52;;;;;;;65.22;35.40;;;;;;;;;;5131111;27;20039;-72
2022/12/01 11:29:37;;;;;;;66.40;37.95;;;;;;;;;;5132847;27;20439;-72
2022/12/01 11:32:12;;;;;;;65.93;38.03;;;;;;;;;;5128460;27;20043;-72
2022/12/01 11:34:38;;;;;;;67.97;42.20;;;;;;;;;;5133766;27;20103;-73
2022/12/01 11:37:07;;;;;;;61.72;36.05;;;;;;;;;;5116368;27;20054;-72
2022/12/01 11:39:37;;;;;;;59.65;33.60;;;;;;;;;;5121906;27;20393;-72
2022/12/01 11:42:20;;;;;;;56.57;34.70;;;;;;;;;;5132997;27;20409;-72
2022/12/01 11:45:09;;;;;;;60.80;32.58;;;;;;;;;;5132923;27;20054;-73
2022/12/01 11:47:55;;;;;;;59.80;34.60;;;;;;;;;;5047348;28;20057;-72
2022/12/01 11:50:25;;;;;;;55.63;30.95;;;;;;;;;;5047765;28;20079;-72
2022/12/01 11:52:51;;;;;;;52.45;33.42;;;;;;;;;;5060062;28;20055;-73
2022/12/01 11:55:22;;;;;;;60.28;33.20;;;;;;;;;;5053360;28;20047;-73
2022/12/01 11:57:50;;;;;;;60.00;35.53;;;;;;;;;;5050267;28;20099;-72
2022/12/01 12:00:17;;;;;;;60.35;33.50;;;;;;;;;;5046863;28;20045;-68
2022/12/01 12:02:43;;;;;;;62.30;34.75;;;;;;;;;;5052616;28;20060;-68
2022/12/01 12:05:28;;;;;;;61.25;33.70;;;;;;;;;;5053629;28;20045;-68
2022/12/01 12:07:54;;;;;;;62.40;34.30;;;;;;;;;;5046511;28;20503;-68
2022/12/01 12:10:28;;;;;;;52.63;31.38;;;;;;;;;;5047314;28;20150;-68
2022/12/01 12:13:06;;;;;;;58.72;33.78;;;;;;;;;;5062179;28;20050;-68
2022/12/01 12:15:43;;;;;;;62.03;34.97;;;;;;;;;;5048160;28;20606;-68
2022/12/01 12:18:24;;;;;;;60.92;33.75;;;;;;;;;;5049028;28;20049;-68
2022/12/01 12:21:03;;;;;;;63.45;35.22;;;;;;;;;;5048491;28;20120;-68
2022/12/01 12:23:41;;;;;;;62.97;35.15;;;;;;;;;;5050943;28;20056;-68
2022/12/01 12:26:18;;;;;;;57.72;34.90;;;;;;;;;;5125306;27;20046;-68
2022/12/01 12:28:53;;;;;;;62.72;36.28;;;;;;;;;;5131745;27;20122;-68
2022/12/01 12:31:22;;;;;;;58.50;35.13;;;;;;;;;;5128418;27;20043;-67
2022/12/01 12:34:07;;;;;;;57.20;33.40;;;;;;;;;;5132837;27;20391;-68
2022/12/01 12:36:33;;;;;;;59.15;34.90;;;;;;;;;;5129768;27;20042;-72
2022/12/01 12:38:59;;;;;;;60.58;35.60;;;;;;;;;;5115569;27;20085;-72
2022/12/01 12:41:28;;;;;;;58.20;33.92;;;;;;;;;;5126284;27;20390;-72
2022/12/01 12:44:03;;;;;;;56.33;34.67;;;;;;;;;;5133139;27;20210;-73
2022/12/01 12:46:32;;;;;;;56.58;32.97;;;;;;;;;;5131757;27;20046;-72
2022/12/01 12:49:13;;;;;;;52.47;30.50;;;;;;;;;;5131927;27;20639;-72
2022/12/01 12:51:45;;;;;;;50.35;31.23;;;;;;;;;;5117265;27;20391;-72
2022/12/01 12:54:11;;;;;;;51.75;30.70;;;;;;;;;;5127135;27;20051;-72
2022/12/01 12:56:40;;;;;;;53.00;32.00;;;;;;;;;;5128199;27;20039;-72
2022/12/01 12:59:15;;;;;;;48.88;30.75;;;;;;;;;;5130185;27;20108;-72
2022/12/01 13:01:43;;;;;;;47.90;31.30;;;;;;;;;;5125781;27;20074;-72
2022/12/01 13:04:20;;;;;;;50.25;30.85;;;;;;;;;;5130589;28;20043;-72
2022/12/01 13:06:58;;;;;;;51.63;32.53;;;;;;;;;;5125365;28;20050;-72
2022/12/01 13:09:28;;;;;;;52.17;29.77;;;;;;;;;;5113907;28;20048;-73
2022/12/01 13:12:07;;;;;;;48.42;31.15;;;;;;;;;;5132974;28;20518;-73
2022/12/01 13:14:38;;;;;;;48.80;30.20;;;;;;;;;;5133159;28;20050;-73
2022/12/01 13:17:25;;;;;;;49.58;29.65;;;;;;;;;;5132799;28;20054;-72
2022/12/01 13:19:51;;;;;;;45.75;29.38;;;;;;;;;;5113925;28;20043;-73
2022/12/01 13:22:18;;;;;;;46.38;28.20;;;;;;;;;;5132383;28;20051;-72
2022/12/01 13:24:44;;;;;;;46.38;30.85;;;;;;;;;;5131961;28;20092;-72
2022/12/01 13:27:11;;;;;;;46.05;29.73;;;;;;;;;;5109242;28;20097;-72
2022/12/01 13:29:39;;;;;;;47.53;30.45;;;;;;;;;;5132678;28;20482;-73
2022/12/01 13:32:06;;;;;;;48.60;31.17;;;;;;;;;;5132820;27;20040;-72
2022/12/01 13:34:37;;;;;;;48.33;30.60;;;;;;;;;;5136351;27;20043;-73
2022/12/01 13:37:04;;;;;;;49.08;30.85;;;;;;;;;;5134884;27;20047;-72
2022/12/01 13:39:34;;;;;;;49.67;29.35;;;;;;;;;;5117284;27;20458;-73
2022/12/01 13:42:04;;;;;;;48.63;31.25;;;;;;;;;;5121979;27;20498;-72
2022/12/01 13:44:50;;;;;;;49.03;31.17;;;;;;;;;;5126315;27;20051;-72
2022/12/01 13:47:16;;;;;;;52.58;31.60;;;;;;;;;;5120463;27;20474;-72
2022/12/01 13:49:42;;;;;;;51.47;32.17;;;;;;;;;;5120837;27;20058;-72
2022/12/01 13:52:21;;;;;;;53.47;32.50;;;;;;;;;;5116156;28;20054;-71
2022/12/01 13:55:12;;;;;;;52.03;32.38;;;;;;;;;;5116543;27;20096;-72
2022/12/01 13:57:38;;;;;;;50.28;30.77;;;;;;;;;;5130256;27;20043;-72
2022/12/01 14:00:23;;;;;;;55.55;33.97;;;;;;;;;;5121520;27;20043;-72
2022/12/01 14:03:07;;;;;;;73.05;37.08;;;;;;;;;;5120579;27;20047;-72
2022/12/01 14:05:39;;;;;;;53.25;32.05;;;;;;;;;;5135152;27;20512;-72
2022/12/01 14:08:22;;;;;;;52.75;32.50;;;;;;;;;;5133196;27;20043;-72
2022/12/01 14:10:58;;;;;;;54.05;31.63;;;;;;;;;;5134297;27;20409;-72
2022/12/01 14:13:25;;;;;;;56.70;35.10;;;;;;;;;;5135983;27;20039;-73
2022/12/01 14:15:58;;;;;;;52.88;32.97;;;;;;;;;;5134196;27;20042;-72
2022/12/01 14:18:34;;;;;;;56.67;35.10;;;;;;;;;;5133163;27;20046;-72
2022/12/01 14:21:03;;;;;;;57.80;35.58;;;;;;;;;;5124129;27;20047;-72